SBCP/CAW METAR and TAF weather

Enter ICAO airport designator
Station Type Date Time Source
SBCP METAR 2018/12/14 22:00 UTC NOAA

SBCP 142200Z 07012KT CAVOK 28/22 Q1015


Station Type Date Time Source
SBCP Decoded METAR 2018/12/14 22:00 UTC NOAA

Campos, Brazil (SBCP) 21-45S 041-20W 11M
Dec 14, 2018 - 05:00 PM EST / 2018.12.14 2200 UTC
Wind: from the ENE (070 degrees) at 14 MPH (12 KT):0
Visibility: greater than 7 mile(s):0
Temperature: 82 F (28 C)
Dew Point: 71 F (22 C)
Relative Humidity: 69%
Pressure (altimeter): 29.97 in. Hg (1015 hPa)
ob: SBCP 142200Z 07012KT CAVOK 28/22 Q1015
cycle: 22

Station Type Date Time Source
SBCP TAF 2018/12/15 06:37 UTC NOAA

TAF SBCP 150330Z 1506/1518 26004KT 7000 BKN010 TN24/1508Z TX35/1517Z
BECMG 1509/1512 36005KT CAVOK
BECMG 1514/1517 08015KT FEW025
RMK PHC


Example: see airport list